• Join FlightAware (Why Join?)
  • Login
  • US Flag 
03:16PM EDT


 

Airport Tracker/Info


-or-


 

Live Flight TrackerFlight Track Log ✈ EJA396 ✈ 16-Jun-2013 ✈ KPWK - KMSP

Flight Track Log - Related Links

Times and Time Zones

All times are in EDT time to prevent confusion due to time zone crossing. See the EJA396 flight status page for this flight to view local times or setup timezone preferences in your user account.

Time Position Orientation Groundspeed Altitude Reporting Facility
EDT Latitude Longitude Course Direction KTS MPH feet Rate Location/Type
03:48PM 42.1686 -87.8450 18° North 286 329 4,000  Level Chicago Center
03:49PM 42.1983 -87.9292 296° West 261 300 6,000 960 Climbing Chicago Center
03:50PM 42.1786 -88.0194 254° West 273 314 6,000 480 Level Chicago Center
03:51PM 42.1592 -88.1131 254° West 274 315 7,100 1,740 Climbing Chicago Center
03:52PM 42.1553 -88.2089 267° West 263 303 9,700 3,180 Climbing Chicago Center
03:53PM 42.1475 -88.3397 265° West 291 335 13,700 3,480 Climbing Chicago Center
03:54PM 42.1411 -88.4678 266° West 335 386 17,000 2,940 Climbing Chicago Center
03:55PM 42.1314 -88.5931 264° West 338 389 19,800 2,580 Climbing Chicago Center
03:56PM 42.1256 -88.7217 267° West 347 399 22,400 1,980 Climbing Chicago Center
03:57PM 42.1156 -88.8656 265° West 357 411 23,900 1,560 Climbing Chicago Center
03:58PM 42.1081 -89.0089 266° West 379 436 25,700 1,740 Climbing Chicago Center
03:59PM 42.1336 -89.1694 282° West 376 433 27,600 1,560 Climbing Chicago Center
04:00PM 42.1550 -89.3119 281° West 386 444 29,000 1,140 Climbing Chicago Center
04:01PM 42.1750 -89.4567 281° West 391 450 30,000 480 Climbing Chicago Center
04:02PM 42.1983 -89.6067 282° West 405 466 30,000  Level Chicago Center
04:03PM 42.2192 -89.7544 281° West 402 463 30,000  Level Chicago Center
04:04PM 42.2425 -89.9261 280° West 399 459 30,000  Level Chicago Center
04:05PM 42.2586 -90.0478 280° West 389 448 30,000  Level Chicago Center
04:07PM 42.2775 -90.1767 281° West 358 412 30,000  Level Chicago Center
04:08PM 42.2978 -90.3292 280° West 348 400 30,000  Level Chicago Center
04:09PM 42.3144 -90.4564 280° West 345 397 30,000  Level Chicago Center
04:10PM 42.3311 -90.5803 280° West 341 392 30,000  Level Chicago Center
04:11PM 42.3681 -90.6953 294° West 348 400 30,000  Level Chicago Center
04:12PM 42.4425 -90.8128 311° West 347 399 30,000  Level Chicago Center
04:13PM 42.5064 -90.9106 312° West 349 402 30,000  Level Chicago Center
04:14PM 42.5697 -91.0083 311° West 349 402 30,000  Level Chicago Center
04:15PM 42.6331 -91.1067 311° West 349 402 30,000  Level Chicago Center
04:16PM 42.6961 -91.2031 312° West 348 400 30,000  Level Chicago Center
04:17PM 42.7708 -91.3197 311° West 345 397 30,000  Level Chicago Center
04:18PM 42.8328 -91.4172 311° West 347 399 30,000  Level Chicago Center
04:19PM 42.8944 -91.5144 311° West 348 400 30,000  Level Chicago Center
04:20PM 42.9333 -91.5717 313° West 351 404 30,000  Level Minneapolis Center
04:20PM 42.9697 -91.6319 310° West 350 403 30,000  Level Chicago Center
04:21PM 43.0306 -91.7303 310° West 347 399 30,000  Level Chicago Center
04:22PM 43.0925 -91.8283 311° West 346 398 30,000  Level Chicago Center
04:23PM 43.1306 -91.8878 311° West 347 399 30,000  Level Minneapolis Center
04:24PM 43.1919 -91.9861 311° West 347 399 30,000 -300 Level Minneapolis Center
04:25PM 43.2531 -92.0850 310° West 345 397 29,400 -1,080 Descending Minneapolis Center
04:26PM 43.3200 -92.1886 312° West 359 413 27,800 -1,740 Descending Minneapolis Center
04:27PM 43.4014 -92.3219 310° West 380 437 25,900 -1,680 Descending Minneapolis Center
04:28PM 43.4697 -92.4325 310° West 383 441 24,400 -1,080 Descending Minneapolis Center
04:29PM 43.5381 -92.5433 310° West 385 443 23,700 -1,200 Descending Minneapolis Center
04:30PM 43.6175 -92.6314 321° Northwest 375 432 22,000 -1,800 Descending Minneapolis Center
04:31PM 43.7175 -92.7272 325° Northwest 368 423 20,000 -1,800 Descending Minneapolis Center
04:32PM 43.7997 -92.8067 325° Northwest 365 420 18,400 -1,560 Descending Minneapolis Center
04:33PM 43.8844 -92.8872 326° Northwest 355 409 16,800 -1,560 Descending Minneapolis Center
04:34PM 43.9639 -92.9631 326° Northwest 348 400 15,200 -1,500 Descending Minneapolis Center
04:35PM 44.0403 -93.0375 325° Northwest 340 391 13,700 -1,500 Descending Minneapolis Center
04:36PM 44.1178 -93.1108 326° Northwest 337 388 12,200 -1,500 Descending Minneapolis Center
04:37PM 44.1911 -93.1828 325° Northwest 326 375 10,700 -1,080 Descending Minneapolis Center
04:38PM 44.2731 -93.2167 344° North 265 305 10,000 -1,020 Descending Minneapolis Center
04:39PM 44.3483 -93.2108 North 271 312 8,600 -1,440 Descending Minneapolis Center
04:40PM 44.4217 -93.1803 17° North 280 322 7,100 -780 Descending Minneapolis Center
04:41PM 44.4906 -93.1322 26° Northeast 279 321 7,000 -60 Descending Minneapolis Center
04:42PM 44.5714 -93.0764 26° Northeast 274 315 7,000 -360 Level Minneapolis Center
04:44PM 44.6575 -93.0347 19° North 277 319 6,200 -1,380 Descending Minneapolis Center
04:45PM 44.7242 -93.0283 North 248 285 4,200 -1,560 Descending Minneapolis Center
04:46PM 44.7853 -93.0550 343° North 234 269 3,000 -900 Descending Minneapolis Center
04:47PM 44.8258 -93.0925 327° Northwest 185 213 2,400 -660 Descending Minneapolis Center
04:48PM 44.8517 -93.1500 302° West 143 165 1,700 -660 Descending Minneapolis Center
04:49PM 44.8678 -93.1889 300° West 118 136 1,100 -600 Descending Minneapolis Center
04:51PM 44.8667 -93.2167 317° Northwest  Level FlightAware Approximate